Husum, Washington
Current Conditions -  °F | °C
As of 11:59 AM on Sunday 25 Jan 2015 (Local Time) from K4S2 Reporting Station
Clear Clear  
Wind Chill: 50°   Ceiling: Unl
Heat Index: 50°   Visibility: 10mi
Dew Point: 46°   Wind: 3mph
Humidity: 87%   Direction: 350°N
Pressure: 30.2"   Gusts: NA
Location:  45.8°N, 121.49°W
Report Text: K4S2 251959Z AUTO 35003KT 10SM CLR 10/08 A3020 RMK AO2 SLP241 T01000080
Loading
Personal Weather Stations






























Interactive Weather Map New forecast layout! Learn more

10-Day Weather Forecast

Advertisements
Track Severe Weather on mobile